createdAt,value
2018-10-03T00:00:30.975Z,100658.00
2018-10-03T00:03:00.933Z,100645.00
2018-10-03T00:05:30.602Z,100653.00
2018-10-03T00:08:00.301Z,100659.00
2018-10-03T00:10:30.529Z,100666.00
2018-10-03T00:12:59.855Z,100670.00
2018-10-03T00:15:29.991Z,100672.00
2018-10-03T00:17:59.561Z,100660.00
2018-10-03T00:20:29.223Z,100662.00
2018-10-03T00:22:58.938Z,100672.00
2018-10-03T00:25:28.487Z,100678.00
2018-10-03T00:27:58.221Z,100668.00
2018-10-03T00:30:27.735Z,100661.00
2018-10-03T00:32:57.434Z,100667.00
2018-10-03T00:35:27.221Z,100675.00
2018-10-03T00:37:56.867Z,100667.00
2018-10-03T00:40:26.649Z,100691.00
2018-10-03T00:42:55.803Z,100685.00
2018-10-03T00:45:25.817Z,100685.00
2018-10-03T00:47:55.767Z,100695.00
2018-10-03T00:50:25.618Z,100694.00
2018-10-03T00:52:55.645Z,100694.00
2018-10-03T00:55:25.390Z,100688.00
2018-10-03T00:57:55.324Z,100689.00
2018-10-03T01:00:24.973Z,100684.00
2018-10-03T01:02:54.501Z,100684.00
2018-10-03T01:05:24.914Z,100697.00
2018-10-03T01:07:54.772Z,100696.00
2018-10-03T01:10:25.021Z,100696.00
2018-10-03T01:12:54.774Z,100691.00
2018-10-03T01:15:24.685Z,100693.00
2018-10-03T01:17:54.059Z,100699.00
2018-10-03T01:20:24.135Z,100699.00
2018-10-03T01:22:53.943Z,100705.00
2018-10-03T01:25:23.501Z,100690.00
2018-10-03T01:27:53.163Z,100690.00
2018-10-03T01:30:23.314Z,100696.00
2018-10-03T01:32:53.314Z,100698.00
2018-10-03T01:35:22.908Z,100702.00
2018-10-03T01:37:52.162Z,100700.00
2018-10-03T01:40:21.771Z,100701.00
2018-10-03T01:42:51.342Z,100700.00
2018-10-03T01:45:20.934Z,100711.00
2018-10-03T01:47:51.165Z,100707.00
2018-10-03T01:50:20.678Z,100717.00
2018-10-03T01:52:50.873Z,100713.00
2018-10-03T01:55:20.571Z,100705.00
2018-10-03T01:57:50.027Z,100723.00
2018-10-03T02:00:19.826Z,100712.00
2018-10-03T02:02:49.584Z,100719.00
2018-10-03T02:05:19.414Z,100727.00
2018-10-03T02:07:49.455Z,100718.00
2018-10-03T02:10:19.491Z,100730.00
2018-10-03T02:12:49.331Z,100735.00
2018-10-03T02:15:19.263Z,100726.00
2018-10-03T02:17:49.091Z,100745.00
2018-10-03T02:20:19.542Z,100734.00
2018-10-03T02:22:49.488Z,100739.00
2018-10-03T02:25:19.197Z,100731.00
2018-10-03T02:27:48.630Z,100736.00
2018-10-03T02:30:18.241Z,100727.00
2018-10-03T02:32:48.255Z,100739.00
2018-10-03T02:35:18.495Z,100736.00
2018-10-03T02:37:47.767Z,100757.00
2018-10-03T02:40:17.937Z,100735.00
2018-10-03T02:42:47.826Z,100743.00
2018-10-03T02:45:20.040Z,100743.00
2018-10-03T02:47:51.565Z,100746.00
2018-10-03T02:50:21.291Z,100740.00
2018-10-03T02:52:51.891Z,100745.00
2018-10-03T02:55:21.900Z,100747.00
2018-10-03T02:57:52.007Z,100751.00
2018-10-03T03:00:21.780Z,100755.00
2018-10-03T03:02:51.577Z,100759.00
2018-10-03T03:05:21.410Z,100764.00
2018-10-03T03:07:50.965Z,100761.00
2018-10-03T03:10:20.773Z,100759.00
2018-10-03T03:12:50.831Z,100764.00
2018-10-03T03:15:20.538Z,100762.00
2018-10-03T03:17:50.353Z,100764.00
2018-10-03T03:20:21.009Z,100763.00
2018-10-03T03:22:50.959Z,100778.00
2018-10-03T03:25:20.918Z,100776.00
2018-10-03T03:27:50.755Z,100770.00
2018-10-03T03:30:20.765Z,100752.00
2018-10-03T03:32:50.820Z,100757.00
2018-10-03T03:35:20.740Z,100763.00
2018-10-03T03:37:52.881Z,100776.00
2018-10-03T03:40:23.255Z,100771.00
2018-10-03T03:42:53.350Z,100790.00
2018-10-03T03:45:22.858Z,100788.00
2018-10-03T03:47:53.103Z,100788.00
2018-10-03T03:50:22.517Z,100793.00
2018-10-03T03:52:53.003Z,100791.00
2018-10-03T03:55:22.899Z,100794.00
2018-10-03T03:57:53.553Z,100813.00
2018-10-03T04:00:23.133Z,100815.00
2018-10-03T04:02:53.872Z,100820.00
2018-10-03T04:05:24.014Z,100835.00
2018-10-03T04:07:53.978Z,100828.00
2018-10-03T04:10:24.111Z,100825.00
2018-10-03T04:12:53.894Z,100824.00
2018-10-03T04:15:23.877Z,100833.00
2018-10-03T04:17:53.457Z,100828.00
2018-10-03T04:20:23.729Z,100827.00
2018-10-03T04:22:53.523Z,100836.00
2018-10-03T04:25:22.798Z,100839.00
2018-10-03T04:27:52.828Z,100845.00
2018-10-03T04:30:22.961Z,100844.00
2018-10-03T04:32:52.524Z,100848.00
2018-10-03T04:35:22.486Z,100858.00
2018-10-03T04:37:52.526Z,100851.00
2018-10-03T04:40:21.889Z,100855.00
2018-10-03T04:42:51.820Z,100866.00
2018-10-03T04:45:21.929Z,100857.00
2018-10-03T04:47:51.311Z,100862.00
2018-10-03T04:50:20.747Z,100879.00
2018-10-03T04:52:50.524Z,100871.00
2018-10-03T04:55:19.883Z,100881.00
2018-10-03T04:57:49.569Z,100870.00
2018-10-03T05:00:18.731Z,100885.00
2018-10-03T05:02:48.107Z,100888.00
2018-10-03T05:05:17.517Z,100889.00
2018-10-03T05:07:46.855Z,100889.00
2018-10-03T05:10:16.256Z,100887.00
2018-10-03T05:12:45.722Z,100888.00
2018-10-03T05:15:15.062Z,100879.00
2018-10-03T05:17:44.872Z,100889.00
2018-10-03T05:20:14.229Z,100905.00
2018-10-03T05:22:43.985Z,100903.00
2018-10-03T05:25:14.540Z,100898.00
2018-10-03T05:27:44.169Z,100900.00
2018-10-03T05:30:14.159Z,100892.00
2018-10-03T05:32:44.316Z,100889.00
2018-10-03T05:35:14.337Z,100906.00
2018-10-03T05:37:44.496Z,100899.00
2018-10-03T05:40:14.281Z,100897.00
2018-10-03T05:42:44.254Z,100906.00
2018-10-03T05:45:14.613Z,100904.00
2018-10-03T05:47:45.169Z,100911.00
2018-10-03T05:50:15.440Z,100924.00
2018-10-03T05:52:45.758Z,100916.00
2018-10-03T05:55:16.567Z,100919.00
2018-10-03T05:57:47.684Z,100914.00
2018-10-03T06:00:18.308Z,100926.00
2018-10-03T06:02:48.873Z,100924.00
2018-10-03T06:05:19.296Z,100929.00
2018-10-03T06:07:49.474Z,100949.00
2018-10-03T06:10:19.480Z,100942.00
2018-10-03T06:12:49.832Z,100934.00
2018-10-03T06:15:19.978Z,100955.00
2018-10-03T06:17:49.724Z,100946.00
2018-10-03T06:20:20.446Z,100971.00
2018-10-03T06:22:50.818Z,100970.00
2018-10-03T06:25:21.184Z,100959.00
2018-10-03T06:27:51.215Z,100967.00
2018-10-03T06:30:22.018Z,100975.00
2018-10-03T06:32:51.965Z,100985.00
2018-10-03T06:35:22.732Z,100999.00
2018-10-03T06:37:52.656Z,100989.00
2018-10-03T06:40:22.835Z,101012.00
2018-10-03T06:42:53.210Z,101014.00
2018-10-03T06:45:23.788Z,101012.00
2018-10-03T06:47:54.142Z,101015.00
2018-10-03T06:50:29.038Z,101029.00
2018-10-03T06:52:59.340Z,101038.00
2018-10-03T06:55:29.577Z,101035.00
2018-10-03T06:57:59.522Z,101041.00
2018-10-03T07:00:29.606Z,101044.00
2018-10-03T07:02:59.505Z,101038.00
2018-10-03T07:05:30.005Z,101046.00
2018-10-03T07:07:59.609Z,101051.00
2018-10-03T07:10:29.505Z,101054.00
2018-10-03T07:12:59.608Z,101048.00
2018-10-03T07:15:30.291Z,101060.00
2018-10-03T07:18:01.414Z,101050.00
2018-10-03T07:20:31.275Z,101072.00
2018-10-03T07:23:01.615Z,101064.00
2018-10-03T07:25:32.618Z,101066.00
2018-10-03T07:28:02.769Z,101059.00
2018-10-03T07:30:33.808Z,101076.00
2018-10-03T07:33:04.607Z,101074.00
2018-10-03T07:35:34.851Z,101072.00
2018-10-03T07:38:05.144Z,101059.00
2018-10-03T07:40:35.870Z,101073.00
2018-10-03T07:43:06.312Z,101078.00
2018-10-03T07:45:36.664Z,101078.00
2018-10-03T07:48:07.596Z,101092.00
2018-10-03T07:50:37.928Z,101093.00
2018-10-03T07:53:08.616Z,101103.00
2018-10-03T07:55:39.036Z,101118.00
2018-10-03T07:58:09.438Z,101112.00
2018-10-03T08:00:40.230Z,101125.00
2018-10-03T08:03:12.785Z,101118.00
2018-10-03T08:05:43.214Z,101119.00
2018-10-03T08:08:13.316Z,101116.00
2018-10-03T08:10:44.240Z,101126.00
2018-10-03T08:13:14.686Z,101139.00
2018-10-03T08:15:45.022Z,101130.00
2018-10-03T08:18:14.614Z,101130.00
2018-10-03T08:20:44.504Z,101148.00
2018-10-03T08:23:14.311Z,101149.00
2018-10-03T08:25:44.360Z,101149.00
2018-10-03T08:28:14.430Z,101145.00
2018-10-03T08:30:44.091Z,101157.00
2018-10-03T08:33:14.592Z,101153.00
2018-10-03T08:35:44.883Z,101171.00
2018-10-03T08:38:14.613Z,101156.00
2018-10-03T08:40:44.681Z,101171.00
2018-10-03T08:43:15.149Z,101182.00
2018-10-03T08:45:45.733Z,101171.00
2018-10-03T08:48:16.377Z,101187.00
2018-10-03T08:50:46.333Z,101185.00
2018-10-03T08:53:16.223Z,101172.00
2018-10-03T08:55:46.251Z,101191.00
2018-10-03T08:58:16.246Z,101193.00
2018-10-03T09:00:46.437Z,101197.00
2018-10-03T09:03:16.610Z,101216.00
2018-10-03T09:05:46.895Z,101220.00
2018-10-03T09:08:17.710Z,101230.00
2018-10-03T09:10:48.535Z,101228.00
2018-10-03T09:13:18.765Z,101230.00
2018-10-03T09:15:48.611Z,101217.00
2018-10-03T09:18:18.685Z,101218.00
2018-10-03T09:20:48.947Z,101241.00
2018-10-03T09:23:18.935Z,101254.00
2018-10-03T09:25:49.484Z,101251.00
2018-10-03T09:28:19.305Z,101250.00
2018-10-03T09:30:49.595Z,101258.00
2018-10-03T09:33:19.314Z,101259.00
2018-10-03T09:35:49.298Z,101276.00
2018-10-03T09:38:18.930Z,101268.00
2018-10-03T09:40:49.827Z,101272.00
2018-10-03T09:43:19.344Z,101279.00
2018-10-03T09:45:49.009Z,101286.00
2018-10-03T09:48:19.104Z,101282.00
2018-10-03T09:50:52.050Z,101287.00
2018-10-03T09:53:22.118Z,101269.00
2018-10-03T09:55:51.603Z,101289.00
2018-10-03T09:58:21.723Z,101292.00
2018-10-03T10:00:58.117Z,101296.00
2018-10-03T10:03:27.669Z,101291.00
2018-10-03T10:05:58.104Z,101302.00
2018-10-03T10:08:28.695Z,101303.00
2018-10-03T10:10:58.812Z,101301.00
2018-10-03T10:13:29.210Z,101302.00
2018-10-03T10:16:00.105Z,101330.00
2018-10-03T10:18:30.514Z,101320.00
2018-10-03T10:21:00.683Z,101298.00
2018-10-03T10:23:30.734Z,101312.00
2018-10-03T10:26:00.872Z,101307.00
2018-10-03T10:28:30.698Z,101314.00
2018-10-03T10:31:00.727Z,101329.00
2018-10-03T10:33:31.233Z,101318.00
2018-10-03T10:36:01.162Z,101321.00
2018-10-03T10:38:31.418Z,101330.00
2018-10-03T10:41:01.470Z,101327.00
2018-10-03T10:43:31.502Z,101339.00
2018-10-03T10:46:01.418Z,101359.00
2018-10-03T10:48:31.421Z,101335.00
2018-10-03T10:51:01.447Z,101355.00
2018-10-03T10:53:31.487Z,101352.00
2018-10-03T10:56:02.416Z,101345.00
2018-10-03T10:58:31.922Z,101357.00
2018-10-03T11:01:01.381Z,101350.00
2018-10-03T11:03:31.353Z,101333.00
2018-10-03T11:06:01.143Z,101370.00
2018-10-03T11:08:31.371Z,101372.00
2018-10-03T11:11:01.581Z,101368.00
2018-10-03T11:13:32.111Z,101366.00
2018-10-03T11:16:02.025Z,101376.00
2018-10-03T11:18:32.219Z,101389.00
2018-10-03T11:21:02.197Z,101398.00
2018-10-03T11:23:32.605Z,101385.00
2018-10-03T11:26:02.533Z,101383.00
2018-10-03T11:28:32.391Z,101376.00
2018-10-03T11:31:01.964Z,101379.00
2018-10-03T11:33:31.655Z,101380.00
2018-10-03T11:36:01.675Z,101393.00
2018-10-03T11:38:31.451Z,101391.00
2018-10-03T11:41:01.371Z,101388.00
2018-10-03T11:43:31.241Z,101373.00
2018-10-03T11:46:01.338Z,101385.00
2018-10-03T11:48:31.407Z,101397.00
2018-10-03T11:51:01.496Z,101376.00
2018-10-03T11:53:31.387Z,101394.00
2018-10-03T11:56:01.457Z,101400.00
2018-10-03T11:58:31.349Z,101412.00
2018-10-03T12:01:01.529Z,101409.00
2018-10-03T12:03:31.619Z,101415.00
2018-10-03T12:06:02.014Z,101416.00
2018-10-03T12:08:32.116Z,101423.00
2018-10-03T12:11:02.239Z,101424.00
2018-10-03T12:13:31.982Z,101436.00
2018-10-03T12:16:03.190Z,101450.00
2018-10-03T12:18:34.125Z,101437.00
2018-10-03T12:21:04.113Z,101437.00
2018-10-03T12:23:34.117Z,101437.00
2018-10-03T12:26:04.319Z,101453.00
2018-10-03T12:28:34.929Z,101452.00
2018-10-03T12:31:05.343Z,101435.00
2018-10-03T12:33:34.944Z,101442.00
2018-10-03T12:36:04.607Z,101437.00
2018-10-03T12:38:34.431Z,101442.00
2018-10-03T12:41:04.013Z,101434.00
2018-10-03T12:43:34.053Z,101463.00
2018-10-03T12:46:03.995Z,101439.00
2018-10-03T12:48:34.012Z,101451.00
2018-10-03T12:51:03.835Z,101454.00
2018-10-03T12:53:33.823Z,101463.00
2018-10-03T12:56:03.867Z,101463.00
2018-10-03T12:58:33.905Z,101484.00
2018-10-03T13:01:04.354Z,101469.00
2018-10-03T13:03:34.569Z,101476.00
2018-10-03T13:06:04.758Z,101468.00
2018-10-03T13:08:35.140Z,101457.00
2018-10-03T13:11:05.257Z,101466.00
2018-10-03T13:13:35.494Z,101463.00
2018-10-03T13:16:06.038Z,101474.00
2018-10-03T13:18:36.379Z,101477.00
2018-10-03T13:21:06.692Z,101478.00
2018-10-03T13:23:37.077Z,101483.00
2018-10-03T13:26:06.600Z,101488.00
2018-10-03T13:28:36.393Z,101492.00
2018-10-03T13:31:06.385Z,101482.00
2018-10-03T13:33:36.719Z,101488.00
2018-10-03T13:36:06.846Z,101497.00
2018-10-03T13:38:36.888Z,101492.00
2018-10-03T13:41:07.824Z,101495.00
2018-10-03T13:43:37.761Z,101493.00
2018-10-03T13:46:07.632Z,101494.00
2018-10-03T13:48:37.605Z,101494.00
2018-10-03T13:51:07.192Z,101491.00
2018-10-03T13:53:37.062Z,101481.00
2018-10-03T13:56:06.824Z,101487.00
2018-10-03T13:58:36.461Z,101486.00
2018-10-03T14:01:06.239Z,101474.00
2018-10-03T14:03:36.202Z,101479.00
2018-10-03T14:06:06.766Z,101493.00
2018-10-03T14:08:36.512Z,101487.00
2018-10-03T14:11:06.584Z,101491.00
2018-10-03T14:13:37.800Z,101489.00
2018-10-03T14:16:07.950Z,101491.00
2018-10-03T14:18:38.434Z,101498.00
2018-10-03T14:21:08.461Z,101494.00
2018-10-03T14:23:39.106Z,101503.00
2018-10-03T14:26:09.406Z,101498.00
2018-10-03T14:28:39.344Z,101503.00
2018-10-03T14:31:10.996Z,101503.00
2018-10-03T14:33:41.200Z,101503.00
2018-10-03T14:36:11.196Z,101494.00
2018-10-03T14:38:41.930Z,101501.00
2018-10-03T14:41:12.535Z,101507.00
2018-10-03T14:43:47.162Z,101515.00
2018-10-03T14:46:24.812Z,101510.00
2018-10-03T14:49:02.520Z,101510.00
2018-10-03T14:51:33.928Z,101506.00
2018-10-03T14:54:04.124Z,101516.00
2018-10-03T14:56:35.434Z,101503.00
2018-10-03T14:59:06.666Z,101510.00
2018-10-03T15:01:37.706Z,101506.00
2018-10-03T15:04:08.261Z,101507.00
2018-10-03T15:06:38.378Z,101520.00
2018-10-03T15:09:09.242Z,101518.00
2018-10-03T15:11:40.006Z,101506.00
2018-10-03T15:14:10.307Z,101510.00
2018-10-03T15:16:40.560Z,101520.00
2018-10-03T15:19:10.748Z,101529.00
2018-10-03T15:21:40.763Z,101532.00
2018-10-03T15:24:10.883Z,101529.00
2018-10-03T15:26:42.003Z,101532.00
2018-10-03T15:29:12.682Z,101532.00
2018-10-03T15:31:42.698Z,101540.00
2018-10-03T15:34:13.500Z,101536.00
2018-10-03T15:36:44.029Z,101536.00
2018-10-03T15:39:14.643Z,101540.00
2018-10-03T15:41:44.302Z,101540.00
2018-10-03T15:44:13.958Z,101544.00
2018-10-03T15:46:44.368Z,101542.00
2018-10-03T15:49:14.363Z,101555.00
2018-10-03T15:51:44.042Z,101554.00
2018-10-03T15:54:13.940Z,101555.00
2018-10-03T15:56:44.572Z,101570.00
2018-10-03T15:59:15.632Z,101574.00
2018-10-03T16:01:46.346Z,101575.00
2018-10-03T16:04:16.684Z,101574.00
2018-10-03T16:06:47.828Z,101585.00
2018-10-03T16:09:18.044Z,101587.00
2018-10-03T16:11:48.022Z,101589.00
2018-10-03T16:14:18.639Z,101583.00
2018-10-03T16:16:49.104Z,101591.00
2018-10-03T16:19:20.031Z,101600.00
2018-10-03T16:21:50.342Z,101605.00
2018-10-03T16:24:20.863Z,101603.00
2018-10-03T16:26:51.027Z,101600.00
2018-10-03T16:29:21.841Z,101607.00
2018-10-03T16:31:52.332Z,101612.00
2018-10-03T16:34:22.785Z,101617.00
2018-10-03T16:36:54.165Z,101624.00
2018-10-03T16:39:25.309Z,101623.00
2018-10-03T16:41:55.597Z,101622.00
2018-10-03T16:44:27.205Z,101627.00
2018-10-03T16:46:57.786Z,101628.00
2018-10-03T16:49:28.416Z,101639.00
2018-10-03T16:51:58.462Z,101630.00
2018-10-03T16:54:28.163Z,101628.00
2018-10-03T16:56:57.744Z,101632.00
2018-10-03T16:59:26.963Z,101630.00
2018-10-03T17:01:56.693Z,101629.00
2018-10-03T17:04:27.170Z,101643.00
2018-10-03T17:06:56.982Z,101638.00
2018-10-03T17:09:26.178Z,101652.00
2018-10-03T17:11:56.298Z,101652.00
2018-10-03T17:14:28.152Z,101651.00
2018-10-03T17:16:58.094Z,101659.00
2018-10-03T17:19:27.263Z,101662.00
2018-10-03T17:21:57.092Z,101665.00
2018-10-03T17:24:28.596Z,101670.00
2018-10-03T17:26:58.385Z,101668.00
2018-10-03T17:29:28.117Z,101673.00
2018-10-03T17:31:57.735Z,101676.00
2018-10-03T17:34:26.964Z,101674.00
2018-10-03T17:36:56.861Z,101677.00
2018-10-03T17:39:27.624Z,101676.00
2018-10-03T17:41:57.225Z,101685.00
2018-10-03T17:44:27.182Z,101678.00
2018-10-03T17:46:57.666Z,101683.00
2018-10-03T17:49:27.574Z,101681.00
2018-10-03T17:51:57.264Z,101686.00
2018-10-03T17:54:26.908Z,101692.00
2018-10-03T17:56:56.621Z,101691.00
2018-10-03T17:59:25.977Z,101689.00
2018-10-03T18:01:58.182Z,101696.00
2018-10-03T18:04:28.186Z,101691.00
2018-10-03T18:06:57.832Z,101705.00
2018-10-03T18:09:27.713Z,101705.00
2018-10-03T18:11:58.009Z,101716.00
2018-10-03T18:14:27.883Z,101722.00
2018-10-03T18:16:57.709Z,101716.00
2018-10-03T18:19:27.710Z,101711.00
2018-10-03T18:21:57.677Z,101708.00
2018-10-03T18:24:27.332Z,101715.00
2018-10-03T18:26:57.087Z,101721.00
2018-10-03T18:29:26.974Z,101725.00
2018-10-03T18:31:56.707Z,101721.00
2018-10-03T18:34:26.471Z,101722.00
2018-10-03T18:36:56.129Z,101720.00
2018-10-03T18:39:26.232Z,101714.00
2018-10-03T18:41:55.801Z,101721.00
2018-10-03T18:44:25.380Z,101710.00
2018-10-03T18:46:56.195Z,101713.00
2018-10-03T18:49:26.089Z,101720.00
2018-10-03T18:51:56.348Z,101718.00
2018-10-03T18:54:26.279Z,101715.00
2018-10-03T18:56:56.155Z,101723.00
2018-10-03T18:59:26.699Z,101721.00
2018-10-03T19:01:57.145Z,101735.00
2018-10-03T19:04:26.541Z,101730.00
2018-10-03T19:06:57.212Z,101733.00
2018-10-03T19:09:26.683Z,101740.00
2018-10-03T19:11:56.074Z,101737.00
2018-10-03T19:14:26.347Z,101733.00
2018-10-03T19:16:56.807Z,101742.00
2018-10-03T19:19:26.403Z,101735.00
2018-10-03T19:21:55.949Z,101733.00
2018-10-03T19:24:26.234Z,101735.00
2018-10-03T19:26:56.147Z,101739.00
2018-10-03T19:29:25.910Z,101746.00
2018-10-03T19:31:55.452Z,101736.00
2018-10-03T19:34:25.911Z,101756.00
2018-10-03T19:36:55.703Z,101755.00
2018-10-03T19:39:26.441Z,101762.00
2018-10-03T19:41:56.300Z,101760.00
2018-10-03T19:44:25.976Z,101767.00
2018-10-03T19:46:56.339Z,101760.00
2018-10-03T19:49:26.774Z,101760.00
2018-10-03T19:51:57.079Z,101760.00
2018-10-03T19:54:27.148Z,101754.00
2018-10-03T19:56:56.843Z,101754.00
2018-10-03T19:59:26.659Z,101751.00
2018-10-03T20:01:56.234Z,101759.00
2018-10-03T20:04:26.400Z,101762.00
2018-10-03T20:06:56.241Z,101767.00
2018-10-03T20:09:26.669Z,101762.00
2018-10-03T20:11:56.663Z,101766.00
2018-10-03T20:14:26.273Z,101767.00
2018-10-03T20:16:56.211Z,101757.00
2018-10-03T20:19:25.881Z,101756.00
2018-10-03T20:21:57.143Z,101768.00
2018-10-03T20:24:26.784Z,101769.00
2018-10-03T20:26:56.708Z,101769.00
2018-10-03T20:29:26.177Z,101767.00
2018-10-03T20:31:55.406Z,101764.00
2018-10-03T20:34:25.070Z,101759.00
2018-10-03T20:36:54.600Z,101761.00
2018-10-03T20:39:24.371Z,101760.00
2018-10-03T20:41:54.252Z,101757.00
2018-10-03T20:44:23.864Z,101758.00
2018-10-03T20:46:53.604Z,101748.00
2018-10-03T20:49:23.685Z,101742.00
2018-10-03T20:51:53.133Z,101745.00
2018-10-03T20:54:23.222Z,101741.00
2018-10-03T20:56:53.558Z,101740.00
2018-10-03T20:59:23.329Z,101749.00
2018-10-03T21:01:53.032Z,101748.00
2018-10-03T21:04:22.650Z,101759.00
2018-10-03T21:06:52.650Z,101751.00
2018-10-03T21:09:22.370Z,101755.00
2018-10-03T21:11:53.180Z,101762.00
2018-10-03T21:14:23.178Z,101768.00
2018-10-03T21:16:52.858Z,101768.00
2018-10-03T21:19:22.682Z,101780.00
2018-10-03T21:21:52.088Z,101767.00
2018-10-03T21:24:21.895Z,101775.00
2018-10-03T21:26:52.232Z,101771.00
2018-10-03T21:29:22.298Z,101779.00
2018-10-03T21:31:52.033Z,101780.00
2018-10-03T21:34:22.219Z,101782.00
2018-10-03T21:36:51.796Z,101790.00
2018-10-03T21:39:21.013Z,101802.00
2018-10-03T21:41:50.774Z,101789.00
2018-10-03T21:44:21.318Z,101799.00
2018-10-03T21:46:51.470Z,101786.00
2018-10-03T21:49:21.100Z,101779.00
2018-10-03T21:51:51.116Z,101779.00
2018-10-03T21:54:20.676Z,101770.00
2018-10-03T21:56:50.814Z,101784.00
2018-10-03T21:59:20.246Z,101790.00
2018-10-03T22:01:49.508Z,101786.00
2018-10-03T22:04:19.214Z,101788.00
2018-10-03T22:06:48.759Z,101793.00
2018-10-03T22:09:18.561Z,101797.00
2018-10-03T22:11:48.188Z,101800.00
2018-10-03T22:14:17.884Z,101803.00
2018-10-03T22:16:48.315Z,101793.00
2018-10-03T22:19:18.328Z,101802.00
2018-10-03T22:21:48.248Z,101796.00
2018-10-03T22:24:17.805Z,101796.00
2018-10-03T22:26:47.467Z,101788.00
2018-10-03T22:29:17.124Z,101793.00
2018-10-03T22:31:47.622Z,101783.00
2018-10-03T22:34:17.186Z,101783.00
2018-10-03T22:36:46.965Z,101787.00
2018-10-03T22:39:16.229Z,101786.00
2018-10-03T22:41:45.692Z,101795.00
2018-10-03T22:44:15.160Z,101795.00
2018-10-03T22:46:44.584Z,101791.00
2018-10-03T22:49:14.794Z,101800.00
2018-10-03T22:51:46.702Z,101799.00
2018-10-03T22:54:17.056Z,101809.00
2018-10-03T22:56:46.370Z,101800.00
2018-10-03T22:59:16.049Z,101813.00
2018-10-03T23:01:45.849Z,101811.00
2018-10-03T23:04:15.626Z,101805.00
2018-10-03T23:06:45.674Z,101811.00
2018-10-03T23:09:14.982Z,101812.00
2018-10-03T23:11:44.234Z,101808.00
2018-10-03T23:14:13.897Z,101808.00
2018-10-03T23:16:43.486Z,101792.00
2018-10-03T23:19:13.210Z,101806.00
2018-10-03T23:21:43.300Z,101799.00
2018-10-03T23:24:12.726Z,101797.00
2018-10-03T23:26:42.518Z,101800.00
2018-10-03T23:29:11.716Z,101802.00
2018-10-03T23:31:41.337Z,101799.00
2018-10-03T23:34:10.677Z,101792.00
2018-10-03T23:36:40.220Z,101791.00
2018-10-03T23:39:11.664Z,101796.00
2018-10-03T23:41:41.348Z,101800.00
2018-10-03T23:44:11.216Z,101800.00
2018-10-03T23:46:40.408Z,101803.00
2018-10-03T23:49:10.432Z,101788.00
2018-10-03T23:51:39.876Z,101806.00
2018-10-03T23:54:09.677Z,101805.00
2018-10-03T23:56:39.064Z,101796.00
2018-10-03T23:59:09.032Z,101799.00
